Terminal Aerodrome Forecast
Issued by NWS Pendleton, OR

Home | Current Version | Previous Version | Text Only | Print | Product List | Glossary On
Versions: 1 2 3 4 5 6 7 8 9 10 11 12 13 14 15
000
FTUS46 KPDT 290500
TAFPDT
TAF
KPDT 290520Z 2906/3006 23018G28KT P6SM -SHRA SCT035 OVC060
     FM290900 27011KT P6SM VCSH SCT040 OVC070
     FM292000 29013KT P6SM SCT030 BKN050=

USA.gov is the U.S. government's official web portal to all federal, state and local government web resources and services.